createdAt,value
2018-03-29T00:01:06.042Z,3.30
2018-03-29T00:03:41.356Z,4.53
2018-03-29T00:06:16.438Z,2.80
2018-03-29T00:08:51.763Z,2.20
2018-03-29T00:11:27.019Z,2.80
2018-03-29T00:14:02.275Z,1.53
2018-03-29T00:16:37.502Z,3.60
2018-03-29T00:19:12.829Z,3.27
2018-03-29T00:21:48.001Z,3.20
2018-03-29T00:24:23.115Z,4.23
2018-03-29T00:26:59.154Z,3.10
2018-03-29T00:29:34.422Z,2.77
2018-03-29T00:32:09.455Z,2.50
2018-03-29T00:34:44.726Z,3.00
2018-03-29T00:37:20.817Z,2.23
2018-03-29T00:39:56.176Z,2.87
2018-03-29T00:42:31.271Z,3.60
2018-03-29T00:45:06.358Z,3.77
2018-03-29T00:47:41.592Z,3.30
2018-03-29T00:50:17.626Z,2.90
2018-03-29T00:52:53.523Z,3.80
2018-03-29T00:55:28.777Z,4.07
2018-03-29T00:58:04.047Z,3.50
2018-03-29T01:00:39.285Z,3.00
2018-03-29T01:03:14.486Z,3.43
2018-03-29T01:05:49.771Z,4.47
2018-03-29T01:08:24.857Z,2.20
2018-03-29T01:11:00.875Z,2.50
2018-03-29T01:13:36.116Z,3.67
2018-03-29T01:16:11.174Z,3.47
2018-03-29T01:18:46.393Z,2.93
2018-03-29T01:21:21.767Z,3.03
2018-03-29T01:23:56.977Z,2.53
2018-03-29T01:26:32.205Z,3.53
2018-03-29T01:29:07.440Z,4.03
2018-03-29T01:31:42.544Z,5.70
2018-03-29T01:34:17.735Z,3.40
2018-03-29T01:36:52.959Z,4.43
2018-03-29T01:39:28.225Z,6.23
2018-03-29T01:42:04.080Z,4.13
2018-03-29T01:44:40.111Z,3.13
2018-03-29T01:47:15.298Z,3.43
2018-03-29T01:49:50.548Z,2.97
2018-03-29T01:52:25.842Z,6.93
2018-03-29T01:55:01.142Z,4.20
2018-03-29T01:57:36.395Z,5.30
2018-03-29T02:00:11.514Z,2.60
2018-03-29T02:02:46.702Z,1.93
2018-03-29T02:05:21.943Z,2.03
2018-03-29T02:07:57.774Z,2.83
2018-03-29T02:10:33.065Z,3.30
2018-03-29T02:13:08.291Z,2.60
2018-03-29T02:15:43.508Z,3.10
2018-03-29T02:18:19.562Z,4.33
2018-03-29T02:20:54.896Z,2.60
2018-03-29T02:23:30.094Z,3.97
2018-03-29T02:26:05.319Z,3.00
2018-03-29T02:28:40.453Z,3.47
2018-03-29T02:31:15.715Z,4.77
2018-03-29T02:33:51.494Z,3.40
2018-03-29T02:36:26.791Z,2.90
2018-03-29T02:39:01.975Z,3.40
2018-03-29T02:41:37.104Z,3.80
2018-03-29T02:44:12.210Z,5.17
2018-03-29T02:46:47.569Z,4.30
2018-03-29T02:49:23.538Z,3.53
2018-03-29T02:51:58.838Z,4.47
2018-03-29T02:54:34.076Z,3.10
2018-03-29T02:57:10.098Z,3.97
2018-03-29T02:59:45.311Z,3.07
2018-03-29T03:02:20.507Z,3.10
2018-03-29T03:04:55.894Z,5.20
2018-03-29T03:07:31.011Z,3.07
2018-03-29T03:10:06.251Z,3.60
2018-03-29T03:12:41.466Z,3.33
2018-03-29T03:15:16.910Z,3.80
2018-03-29T03:17:52.802Z,3.60
2018-03-29T03:20:27.994Z,4.10
2018-03-29T03:23:03.218Z,4.93
2018-03-29T03:25:39.356Z,2.87
2018-03-29T03:28:14.474Z,3.07
2018-03-29T03:30:49.944Z,5.30
2018-03-29T03:33:25.019Z,3.60
2018-03-29T03:36:00.380Z,3.17
2018-03-29T03:38:35.511Z,2.97
2018-03-29T03:41:10.782Z,4.17
2018-03-29T03:43:45.983Z,3.63
2018-03-29T03:46:21.095Z,4.70
2018-03-29T03:48:56.334Z,2.53
2018-03-29T03:51:31.426Z,3.23
2018-03-29T03:54:07.538Z,4.30
2018-03-29T03:56:42.826Z,3.10
2018-03-29T03:59:17.987Z,2.93
2018-03-29T04:01:53.270Z,2.00
2018-03-29T04:04:28.532Z,3.20
2018-03-29T04:07:03.829Z,2.50
2018-03-29T04:09:39.650Z,2.83
2018-03-29T04:12:14.902Z,2.87
2018-03-29T04:14:50.088Z,3.67
2018-03-29T04:17:25.354Z,3.33
2018-03-29T04:20:00.610Z,3.17
2018-03-29T04:22:35.747Z,1.83
2018-03-29T04:25:11.587Z,7.30
2018-03-29T04:27:46.862Z,4.03
2018-03-29T04:30:23.424Z,4.00
2018-03-29T04:32:58.760Z,5.03
2018-03-29T04:35:33.794Z,3.90
2018-03-29T04:38:09.721Z,4.00
2018-03-29T04:40:45.725Z,3.67
2018-03-29T04:43:21.713Z,5.67
2018-03-29T04:45:56.953Z,3.40
2018-03-29T04:48:32.051Z,5.47
2018-03-29T04:51:07.166Z,5.93
2018-03-29T04:53:42.331Z,4.47
2018-03-29T04:56:17.437Z,4.00
2018-03-29T04:58:52.677Z,3.47
2018-03-29T05:01:27.918Z,4.20
2018-03-29T05:04:03.553Z,7.13
2018-03-29T05:06:38.627Z,10.20
2018-03-29T05:09:13.746Z,3.90
2018-03-29T05:11:48.936Z,5.80
2018-03-29T05:14:24.173Z,5.80
2018-03-29T05:17:00.145Z,6.07
2018-03-29T05:19:35.265Z,5.90
2018-03-29T05:22:10.671Z,6.90
2018-03-29T05:24:45.839Z,5.17
2018-03-29T05:27:30.863Z,7.30
2018-03-29T05:30:06.125Z,8.60
2018-03-29T05:32:41.210Z,6.20
2018-03-29T05:35:16.475Z,7.40
2018-03-29T05:37:51.609Z,9.70
2018-03-29T05:40:26.794Z,6.77
2018-03-29T05:43:02.086Z,5.20
2018-03-29T05:45:37.281Z,7.00
2018-03-29T05:48:12.549Z,6.20
2018-03-29T05:50:47.703Z,7.73
2018-03-29T05:53:22.819Z,7.00
2018-03-29T05:55:57.874Z,9.53
2018-03-29T05:58:33.215Z,5.67
2018-03-29T06:01:08.406Z,7.27
2018-03-29T06:03:43.629Z,11.17
2018-03-29T06:06:18.888Z,12.83
2018-03-29T06:08:54.162Z,7.10
2018-03-29T06:11:29.423Z,9.00
2018-03-29T06:14:07.510Z,7.73
2018-03-29T06:16:47.356Z,8.60
2018-03-29T06:19:22.634Z,7.83
2018-03-29T06:21:57.701Z,8.53
2018-03-29T06:24:36.179Z,9.53
2018-03-29T06:27:11.474Z,8.00
2018-03-29T06:29:46.648Z,7.40
2018-03-29T06:32:21.906Z,10.23
2018-03-29T06:34:57.934Z,8.07
2018-03-29T06:37:33.184Z,9.90
2018-03-29T06:40:08.306Z,8.60
2018-03-29T06:42:44.383Z,11.67
2018-03-29T06:45:19.599Z,29.50
2018-03-29T06:47:55.559Z,10.17
2018-03-29T06:50:30.900Z,9.43
2018-03-29T06:53:06.218Z,8.60
2018-03-29T06:55:41.294Z,9.80
2018-03-29T06:58:16.402Z,8.10
2018-03-29T07:00:51.487Z,8.90
2018-03-29T07:03:26.916Z,8.87
2018-03-29T07:06:02.169Z,10.53
2018-03-29T07:08:37.527Z,8.60
2018-03-29T07:11:12.638Z,9.10
2018-03-29T07:13:47.760Z,12.73
2018-03-29T07:16:23.012Z,10.30
2018-03-29T07:18:59.294Z,13.70
2018-03-29T07:21:34.418Z,10.40
2018-03-29T07:24:09.732Z,8.57
2018-03-29T07:26:44.819Z,9.70
2018-03-29T07:29:20.768Z,11.33
2018-03-29T07:31:55.882Z,8.43
2018-03-29T07:34:31.102Z,10.30
2018-03-29T07:37:06.374Z,10.57
2018-03-29T07:39:41.591Z,10.53
2018-03-29T07:42:16.751Z,10.70
2018-03-29T07:44:52.049Z,10.33
2018-03-29T07:47:27.274Z,27.83
2018-03-29T07:50:02.369Z,12.23
2018-03-29T07:52:37.557Z,10.57
2018-03-29T07:55:12.729Z,14.30
2018-03-29T07:57:47.954Z,11.60
2018-03-29T08:00:23.301Z,9.03
2018-03-29T08:02:58.646Z,10.57
2018-03-29T08:05:34.681Z,10.17
2018-03-29T08:08:09.868Z,8.70
2018-03-29T08:10:45.041Z,12.47
2018-03-29T08:13:20.265Z,8.63
2018-03-29T08:15:55.369Z,10.63
2018-03-29T08:18:30.477Z,8.50
2018-03-29T08:21:05.645Z,10.23
2018-03-29T08:23:40.958Z,11.90
2018-03-29T08:26:16.228Z,8.37
2018-03-29T08:28:51.502Z,10.40
2018-03-29T08:31:26.774Z,10.43
2018-03-29T08:34:02.676Z,8.70
2018-03-29T08:36:37.866Z,8.50
2018-03-29T08:39:13.193Z,7.90
2018-03-29T08:41:48.288Z,8.90
2018-03-29T08:44:23.862Z,8.30
2018-03-29T08:46:59.835Z,11.57
2018-03-29T08:49:35.364Z,8.00
2018-03-29T08:52:10.603Z,7.57
2018-03-29T08:54:46.670Z,9.30
2018-03-29T08:57:22.616Z,7.73
2018-03-29T08:59:57.708Z,6.70
2018-03-29T09:02:32.871Z,5.57
2018-03-29T09:05:07.988Z,8.90
2018-03-29T09:07:43.141Z,7.27
2018-03-29T09:10:18.360Z,10.67
2018-03-29T09:12:54.307Z,6.53
2018-03-29T09:15:30.254Z,6.30
2018-03-29T09:18:05.387Z,9.07
2018-03-29T09:20:41.497Z,6.67
2018-03-29T09:23:16.680Z,6.00
2018-03-29T09:25:51.856Z,4.57
2018-03-29T09:28:27.070Z,7.07
2018-03-29T09:31:02.230Z,6.60
2018-03-29T09:33:37.502Z,4.73
2018-03-29T09:36:13.728Z,5.53
2018-03-29T09:38:48.830Z,4.70
2018-03-29T09:41:24.103Z,5.33
2018-03-29T09:44:00.060Z,4.93
2018-03-29T09:46:35.429Z,7.00
2018-03-29T09:49:10.596Z,6.53
2018-03-29T09:51:46.173Z,5.53
2018-03-29T09:54:21.342Z,4.80
2018-03-29T09:56:56.601Z,5.07
2018-03-29T09:59:31.633Z,4.93
2018-03-29T10:02:12.584Z,5.67
2018-03-29T10:04:53.150Z,5.60
2018-03-29T10:07:34.490Z,8.07
2018-03-29T10:10:09.701Z,7.70
2018-03-29T10:12:44.995Z,6.17
2018-03-29T10:15:20.260Z,4.93
2018-03-29T10:17:55.495Z,6.23
2018-03-29T10:20:30.646Z,8.03
2018-03-29T10:23:05.828Z,6.27
2018-03-29T10:25:41.858Z,6.30
2018-03-29T10:28:17.069Z,5.77
2018-03-29T10:30:52.325Z,5.63
2018-03-29T10:33:27.641Z,9.53
2018-03-29T10:36:02.929Z,5.63
2018-03-29T10:38:38.020Z,6.60
2018-03-29T10:41:13.167Z,7.20
2018-03-29T10:43:48.416Z,5.47
2018-03-29T10:46:24.573Z,6.13
2018-03-29T10:48:59.720Z,5.93
2018-03-29T10:51:34.922Z,7.60
2018-03-29T10:54:13.332Z,5.60
2018-03-29T10:56:50.340Z,5.70
2018-03-29T10:59:25.910Z,4.53
2018-03-29T11:02:02.656Z,5.30
2018-03-29T11:04:37.835Z,5.30
2018-03-29T11:07:20.149Z,4.90
2018-03-29T11:09:55.238Z,5.23
2018-03-29T11:12:31.309Z,4.87
2018-03-29T11:15:06.408Z,3.77
2018-03-29T11:17:41.522Z,3.67
2018-03-29T11:20:16.786Z,3.73
2018-03-29T11:22:52.048Z,4.40
2018-03-29T11:25:27.194Z,3.70
2018-03-29T11:28:03.205Z,3.90
2018-03-29T11:30:38.400Z,4.00
2018-03-29T11:33:14.027Z,3.47
2018-03-29T11:35:50.002Z,3.17
2018-03-29T11:38:25.306Z,2.73
2018-03-29T11:41:00.636Z,3.00
2018-03-29T11:43:36.215Z,3.20
2018-03-29T11:46:12.278Z,2.00
2018-03-29T11:48:47.509Z,3.23
2018-03-29T11:51:22.731Z,2.10
2018-03-29T11:53:57.969Z,2.00
2018-03-29T11:56:33.896Z,2.37
2018-03-29T11:59:09.292Z,2.77
2018-03-29T12:01:44.549Z,2.90
2018-03-29T12:04:19.793Z,3.80
2018-03-29T12:06:55.121Z,1.87
2018-03-29T12:09:30.513Z,2.07
2018-03-29T12:12:05.557Z,1.83
2018-03-29T12:14:40.854Z,1.70
2018-03-29T12:17:16.086Z,1.70
2018-03-29T12:19:51.307Z,1.40
2018-03-29T12:22:26.517Z,2.17
2018-03-29T12:25:02.840Z,1.20
2018-03-29T12:27:37.971Z,1.53
2018-03-29T12:30:13.030Z,1.47
2018-03-29T12:32:48.331Z,2.00
2018-03-29T12:35:23.673Z,0.97
2018-03-29T12:37:58.885Z,1.73
2018-03-29T12:40:34.013Z,1.57
2018-03-29T12:43:12.526Z,1.97
2018-03-29T12:45:47.813Z,1.97
2018-03-29T12:48:23.052Z,1.47
2018-03-29T12:50:58.311Z,1.40
2018-03-29T12:53:33.599Z,3.67
2018-03-29T12:59:10.972Z,1.80
2018-03-29T13:01:46.128Z,1.40
2018-03-29T13:04:21.451Z,1.40
2018-03-29T13:06:56.816Z,1.77
2018-03-29T13:09:33.554Z,1.10
2018-03-29T13:12:08.629Z,1.70
2018-03-29T13:14:44.131Z,2.03
2018-03-29T13:17:19.191Z,1.60
2018-03-29T13:19:54.516Z,1.30
2018-03-29T13:22:30.408Z,1.57
2018-03-29T13:25:05.657Z,1.80
2018-03-29T13:27:40.892Z,1.93
2018-03-29T13:30:16.076Z,4.30
2018-03-29T13:32:51.244Z,1.50
2018-03-29T13:35:26.520Z,1.67
2018-03-29T13:38:01.850Z,1.77
2018-03-29T13:40:37.140Z,2.23
2018-03-29T13:43:12.409Z,2.23
2018-03-29T13:45:47.665Z,1.50
2018-03-29T13:48:23.044Z,1.97
2018-03-29T13:50:59.068Z,2.23
2018-03-29T13:53:34.420Z,1.57
2018-03-29T13:56:09.848Z,2.50
2018-03-29T13:58:45.100Z,3.23
2018-03-29T14:01:20.308Z,6.00
2018-03-29T14:03:55.574Z,5.40
2018-03-29T14:06:30.816Z,1.47
2018-03-29T14:09:06.025Z,1.63
2018-03-29T14:11:41.188Z,1.53
2018-03-29T14:14:16.531Z,1.20
2018-03-29T14:16:51.793Z,2.17
2018-03-29T14:19:27.119Z,2.63
2018-03-29T14:22:13.564Z,1.30
2018-03-29T14:24:50.904Z,1.50
2018-03-29T14:27:26.808Z,0.90
2018-03-29T14:30:02.604Z,2.37
2018-03-29T14:32:37.896Z,0.80
2018-03-29T14:35:13.208Z,1.47
2018-03-29T14:37:49.179Z,2.20
2018-03-29T14:40:24.397Z,2.07
2018-03-29T14:42:59.652Z,1.00
2018-03-29T14:45:34.887Z,1.90
2018-03-29T14:48:10.956Z,1.33
2018-03-29T14:50:46.825Z,1.60
2018-03-29T14:53:22.044Z,1.63
2018-03-29T14:55:57.317Z,1.40
2018-03-29T14:58:32.545Z,1.70
2018-03-29T15:01:08.604Z,0.83
2018-03-29T15:03:44.229Z,1.63
2018-03-29T15:06:20.061Z,1.37
2018-03-29T15:08:55.197Z,1.30
2018-03-29T15:11:30.417Z,2.17
2018-03-29T15:14:08.504Z,4.50
2018-03-29T15:16:43.731Z,1.10
2018-03-29T15:19:19.024Z,4.43
2018-03-29T15:21:55.145Z,1.00
2018-03-29T15:24:30.396Z,3.53
2018-03-29T15:27:05.603Z,1.57
2018-03-29T15:29:40.937Z,1.50
2018-03-29T15:32:16.169Z,2.00
2018-03-29T15:34:51.323Z,1.30
2018-03-29T15:37:27.196Z,1.23
2018-03-29T15:40:02.547Z,1.00
2018-03-29T15:42:37.714Z,1.63
2018-03-29T15:45:12.998Z,1.70
2018-03-29T15:47:48.232Z,2.90
2018-03-29T15:50:23.379Z,2.43
2018-03-29T15:52:58.593Z,1.40
2018-03-29T15:55:33.945Z,1.37
2018-03-29T15:58:09.326Z,2.10
2018-03-29T16:00:44.740Z,2.13
2018-03-29T16:03:20.173Z,5.17
2018-03-29T16:05:55.595Z,2.87
2018-03-29T16:08:30.850Z,2.20
2018-03-29T16:11:06.145Z,1.20
2018-03-29T16:13:41.557Z,1.50
2018-03-29T16:16:17.520Z,1.30
2018-03-29T16:18:52.847Z,1.53
2018-03-29T16:21:27.986Z,1.47
2018-03-29T16:24:03.376Z,3.23
2018-03-29T16:26:38.688Z,1.40
2018-03-29T16:29:14.744Z,2.40
2018-03-29T16:31:49.837Z,2.27
2018-03-29T16:34:25.119Z,1.50
2018-03-29T16:37:00.260Z,1.67
2018-03-29T16:39:35.610Z,1.30
2018-03-29T16:42:11.642Z,0.80
2018-03-29T16:44:46.984Z,1.27
2018-03-29T16:47:22.173Z,3.10
2018-03-29T16:49:57.317Z,2.40
2018-03-29T16:52:32.552Z,2.17
2018-03-29T16:55:07.742Z,1.70
2018-03-29T16:57:42.991Z,1.57
2018-03-29T17:00:18.158Z,3.60
2018-03-29T17:02:53.361Z,1.67
2018-03-29T17:05:28.566Z,2.20
2018-03-29T17:08:04.124Z,1.10
2018-03-29T17:10:40.106Z,1.60
2018-03-29T17:13:15.370Z,1.87
2018-03-29T17:15:50.480Z,3.90
2018-03-29T17:18:25.725Z,1.83
2018-03-29T17:21:00.976Z,1.60
2018-03-29T17:23:36.105Z,1.53
2018-03-29T17:26:11.465Z,1.40
2018-03-29T17:28:46.993Z,1.17
2018-03-29T17:31:22.232Z,2.17
2018-03-29T17:33:57.571Z,1.80
2018-03-29T17:36:32.836Z,2.10
2018-03-29T17:39:08.181Z,1.67
2018-03-29T17:41:43.903Z,1.53
2018-03-29T17:44:19.171Z,1.50
2018-03-29T17:46:54.492Z,2.20
2018-03-29T17:49:30.589Z,1.30
2018-03-29T17:52:05.796Z,1.93
2018-03-29T17:54:41.045Z,3.00
2018-03-29T17:57:16.476Z,1.83
2018-03-29T17:59:51.729Z,3.90
2018-03-29T18:02:26.833Z,2.27
2018-03-29T18:05:02.255Z,1.63
2018-03-29T18:07:37.309Z,1.83
2018-03-29T18:10:12.612Z,3.93
2018-03-29T18:12:47.892Z,2.63
2018-03-29T18:15:23.182Z,2.03
2018-03-29T18:17:58.328Z,2.10
2018-03-29T18:20:34.525Z,2.03
2018-03-29T18:23:09.660Z,1.53
2018-03-29T18:25:45.049Z,2.43
2018-03-29T18:28:20.347Z,4.07
2018-03-29T18:30:55.779Z,4.00
2018-03-29T18:33:31.734Z,3.10
2018-03-29T18:36:07.049Z,4.40
2018-03-29T18:38:43.086Z,5.40
2018-03-29T18:41:19.175Z,3.30
2018-03-29T18:43:54.417Z,3.77
2018-03-29T18:46:29.857Z,3.73
2018-03-29T18:49:05.111Z,4.23
2018-03-29T18:51:40.209Z,7.07
2018-03-29T18:54:15.375Z,3.87
2018-03-29T18:56:50.731Z,3.10
2018-03-29T18:59:26.009Z,2.40
2018-03-29T19:02:01.925Z,3.67
2018-03-29T19:04:37.973Z,2.20
2018-03-29T19:07:13.294Z,3.70
2018-03-29T19:09:48.561Z,3.93
2018-03-29T19:12:23.768Z,5.30
2018-03-29T19:14:59.104Z,3.33
2018-03-29T19:17:34.251Z,2.23
2018-03-29T19:20:09.512Z,2.80
2018-03-29T19:22:44.789Z,4.43
2018-03-29T19:25:19.885Z,2.30
2018-03-29T19:27:55.945Z,3.60
2018-03-29T19:30:31.240Z,3.60
2018-03-29T19:33:06.628Z,3.40
2018-03-29T19:35:41.869Z,4.77
2018-03-29T19:38:17.205Z,7.63
2018-03-29T19:40:52.548Z,3.93
2018-03-29T19:43:28.628Z,4.00
2018-03-29T19:46:10.377Z,4.57
2018-03-29T19:48:45.505Z,3.57
2018-03-29T19:51:20.975Z,4.20
2018-03-29T19:53:56.308Z,3.57
2018-03-29T19:56:31.539Z,5.40
2018-03-29T19:59:06.756Z,3.73
2018-03-29T20:01:42.492Z,7.20
2018-03-29T20:04:17.637Z,6.17
2018-03-29T20:06:53.057Z,8.60
2018-03-29T20:09:28.441Z,4.57
2018-03-29T20:12:03.810Z,4.73
2018-03-29T20:14:38.966Z,5.53
2018-03-29T20:17:14.522Z,3.33
2018-03-29T20:19:50.217Z,5.77
2018-03-29T20:22:25.513Z,3.40
2018-03-29T20:25:01.540Z,3.43
2018-03-29T20:27:37.442Z,3.83
2018-03-29T20:30:12.510Z,7.40
2018-03-29T20:32:47.890Z,26.00
2018-03-29T20:35:23.132Z,11.53
2018-03-29T20:37:58.323Z,6.17
2018-03-29T20:40:33.589Z,3.60
2018-03-29T20:43:08.949Z,6.23
2018-03-29T20:45:44.080Z,7.60
2018-03-29T20:48:19.493Z,4.23
2018-03-29T20:50:54.676Z,7.10
2018-03-29T20:53:30.153Z,4.63
2018-03-29T20:56:06.052Z,4.70
2018-03-29T20:58:41.176Z,5.90
2018-03-29T21:01:16.457Z,5.67
2018-03-29T21:03:51.735Z,4.03
2018-03-29T21:06:27.113Z,8.53
2018-03-29T21:09:02.389Z,4.33
2018-03-29T21:11:37.698Z,4.17
2018-03-29T21:14:12.959Z,6.73
2018-03-29T21:16:48.285Z,4.53
2018-03-29T21:19:23.583Z,6.43
2018-03-29T21:21:59.386Z,5.40
2018-03-29T21:24:34.691Z,5.83
2018-03-29T21:27:09.962Z,7.40
2018-03-29T21:29:45.244Z,5.67
2018-03-29T21:32:20.549Z,6.83
2018-03-29T21:34:55.876Z,4.27
2018-03-29T21:37:31.020Z,4.90
2018-03-29T21:40:06.292Z,5.27
2018-03-29T21:42:42.245Z,8.13
2018-03-29T21:45:17.575Z,4.17
2018-03-29T21:47:52.815Z,5.40
2018-03-29T21:50:28.289Z,7.27
2018-03-29T21:53:03.584Z,6.03
2018-03-29T21:55:38.864Z,5.80
2018-03-29T21:58:14.806Z,5.77
2018-03-29T22:00:50.159Z,6.93
2018-03-29T22:03:25.281Z,5.27
2018-03-29T22:06:00.561Z,5.57
2018-03-29T22:08:36.568Z,5.33
2018-03-29T22:11:11.729Z,4.43
2018-03-29T22:13:50.544Z,8.17
2018-03-29T22:16:26.084Z,6.87
2018-03-29T22:19:01.123Z,4.10
2018-03-29T22:21:36.649Z,8.80
2018-03-29T22:24:12.528Z,5.10
2018-03-29T22:26:47.796Z,4.40
2018-03-29T22:29:22.888Z,5.70
2018-03-29T22:31:58.039Z,5.33
2018-03-29T22:34:33.313Z,5.40
2018-03-29T22:37:08.498Z,12.87
2018-03-29T22:39:43.780Z,6.47
2018-03-29T22:42:19.155Z,7.70
2018-03-29T22:44:54.348Z,5.37
2018-03-29T22:47:30.712Z,5.57
2018-03-29T22:50:05.923Z,5.80
2018-03-29T22:52:41.092Z,7.93
2018-03-29T22:55:17.079Z,20.03
2018-03-29T22:57:53.120Z,5.20
2018-03-29T23:00:35.435Z,8.70
2018-03-29T23:03:10.959Z,5.40
2018-03-29T23:05:47.023Z,5.97
2018-03-29T23:08:22.312Z,7.23
2018-03-29T23:10:57.568Z,8.97
2018-03-29T23:13:32.862Z,9.93
2018-03-29T23:16:08.898Z,8.13
2018-03-29T23:18:44.356Z,5.93
2018-03-29T23:21:19.475Z,6.60
2018-03-29T23:23:54.721Z,7.73
2018-03-29T23:26:29.966Z,12.03
2018-03-29T23:29:05.225Z,6.13
2018-03-29T23:31:40.538Z,9.03
2018-03-29T23:34:15.833Z,8.63
2018-03-29T23:36:51.124Z,6.63
2018-03-29T23:39:26.556Z,11.77
2018-03-29T23:42:01.921Z,7.93
2018-03-29T23:44:37.052Z,9.13
2018-03-29T23:47:12.293Z,6.10
2018-03-29T23:49:47.532Z,8.17
2018-03-29T23:52:23.584Z,5.70
2018-03-29T23:54:59.763Z,6.70
2018-03-29T23:57:35.709Z,9.40
